AirNav   Everest Fuels
 
 348 users online  

MD91 Saxon Farms Airport
Church Hill, Maryland, USA

GOING TO CHURCH HILL?


FAA INFORMATION EFFECTIVE 26 MARCH 2020

Location

FAA Identifier: MD91
Lat/Long: 39-09-08.3970N 076-01-06.7950W
39-09.139950N 076-01.113250W
39.1523325,-76.0185542
(estimated)
Elevation: 70 ft. / 21 m (estimated)
Variation: 11W (1990)
From city: 2 miles NW of CHURCH HILL, MD
Time zone: UTC -4 (UTC -5 during Standard Time)
Zip code: 21623

Airport Operations

Airport use: Private use. Permission required prior to landing
Activation date: 02/1992
Control tower: no
ARTCC: WASHINGTON CENTER
FSS: LEESBURG FLIGHT SERVICE STATION
Attendance: IREG
Wind indicator: yes
Segmented circle: no

Airport Communications

WX AWOS-3 at W29 (18 nm SW): 120.575 (410-643-8795)
WX AWOS-3 at 33N (20 nm E): 120.125 (302-735-9754)

Nearby radio navigation aids

VOR radial/distance  VOR name  Freq  Var
ENOr267/23.9SMYRNA VORTAC111.4009W
BALr103/29.9BALTIMORE VORTAC115.1011W
DQOr221/36.9DUPONT VORTAC114.0010W

 
NDB name  Hdg/Dist  Freq  Var  ID
ELLICOTT114/36.237111WFND ..-. -. -..

Airport Services

Runway Information

Runway 3/21

Dimensions: 3200 x 75 ft. / 975 x 23 m
Surface: turf
RUNWAY 3  RUNWAY 21
Traffic pattern: leftleft

Runway 12/30

Dimensions: 2400 x 100 ft. / 732 x 30 m
Surface: turf
RUNWAY 12  RUNWAY 30
Traffic pattern: leftleft

Airport Ownership and Management from official FAA records

Ownership: Privately-owned
Owner: SAXON FARMS
132 OSPREY PT LA
CHURCH HILL, MD 21623
Phone (310) 556-6745
Manager: WILLIAM BEDELL
18511 MEADOWLAND TERRACE
OLNEY, MD 20832
Phone (301) 924-6463

Airport Operational Statistics

Aircraft based on the field: 2
Single engine airplanes: 1
Multi engine airplanes: 1
    

Additional Remarks

FOR CD CTC POTOMAC APCH AT 866-429-5882.

Instrument Procedures

There are no published instrument procedures at MD91.

Some nearby airports with instrument procedures:

KRJD - Ridgely Airpark (13 nm SE)
W29 - Bay Bridge Airport (18 nm SW)
KEDG - Weide Army Heliport (Aberdeen Proving Ground) (19 nm NW)
33N - Delaware Airpark (20 nm E)
KAPG - Phillips Army Airfield (20 nm N)
 
Loc | Ops | Rwys | IFR | FBO | Links
Com | Nav | Svcs | Stats | Notes
Area around MD91 (Saxon Farms Airport)
 
Road maps at: MapQuest Bing Google
 
Aerial photo
No photo
 
Sectional chart

 
Airport distance calculator
Flying to Saxon Farms Airport? Find the distance to fly.

From to MD91

Sunrise and sunset
Times for 30-Mar-2020
 Local
(UTC-4)
 Zulu
(UTC)
Morning civil twilight06:2410:24
Sunrise06:5110:51
Sunset19:2523:25
Evening civil twilight19:5223:52

Current date and time
Zulu (UTC)  30-Mar-2020 07:43:12
Local (UTC-4)  30-Mar-2020 03:43:12
 
METAR
KW29 
18nm SW 
300705Z AUTO 05005KT 1 3/4SM BR OVC002 11/ A2992 RMK AO2
KAPG 
19nm N 
300708Z AUTO 02006KT 10SM OVC010 12/11 A2994 RMK AO2 CIG 008V010 SLP142 PNO TSNO $
KMTN 
21nm NW 
300704Z AUTO 33003KT 10SM OVC009 12/12 A2994 RMK AO2
KESN 
21nm S 
300724Z AUTO 01006KT 1 3/4SM BR OVC002 12/12 A2995 RMK AO2 T01220116
KNAK 
24nm SW 
300654Z AUTO 02004KT 1 3/4SM BR OVC005 12/11 A2991 RMK AO2 SLP129 T01170106
KDOV 
26nm E 
300716Z AUTO 01009KT 6SM BR OVC004 10/10 A2992 RMK AO2 RAE06 CIG 003 RWY19 SLP135 $
TAF
KMTN 
21nm NW 
300541Z 3006/3106 VRB03KT 1 1/2SM BR BKN003 FM301200 19005KT 3SM BR BKN070 FM301600 26010G18KT P6SM BKN140 FM301800 28015G24KT P6SM BKN090 FM310100 30011G18KT P6SM SCT140 FM310200 30010KT P6SM SCT090 AMD NOT SKED
KDOV 
26nm E 
300357Z 3003/3106 12009KT 1600 BR OVC001 QNH2979INS BECMG 3013/3014 28012G20KT 9999 NSW SCT010 QNH2987INS BECMG 3017/3018 29012G20KT 9999 BKN070 QNH2989INS BECMG 3020/3021 30012KT 9999 FEW070 QNH2986INS TX16/3017Z TN10/3008Z
NOTAMs
Click for the latest NOTAMs
NOTAMs are issued by the DoD/FAA and will open in a separate window not controlled by AirNav.

 

 
 

Would you like to see your business listed on this page?

 If your business provides an interesting product or service to pilots, flight crews, aircraft, or users of the Saxon Farms Airport, you should consider listing it here.  To start the listing process, click on the button below
 
Add a business
 

Other Pages about Saxon Farms Airport

Update a link
 
Copyright © AirNav, LLC. All rights reserved. Privacy Policy  Contact